In Salah, Algeria
Current Conditions -  °F | °C
As of 1:00 AM on Saturday 22 Nov 2014 (Local Time) from DAUI Reporting Station
Clear Clear  
Wind Chill: 72°   Ceiling: Unl
Heat Index: 72°   Visibility: 6mi
Dew Point: 25°   Wind: 14mph
Humidity: 17%   Direction: 60°ENE
Pressure: 30.12"   Gusts: NA
Location:  27.19°N, 2.47°E
Report Text: DAUI 220000Z 06012KT CAVOK 22/M04 Q1020
Loading
Personal Weather Stations






























Interactive Weather Map New forecast layout! Learn more

10-Day Weather Forecast

Advertisements
Track Severe Weather on mobile